sensor_id;sensor_type;location;lat;lon;timestamp;P1;durP1;ratioP1;P2;durP2;ratioP2
60432;SDS011;46286;48.098;11.590;2023-04-06T00:00:13;17.45;;;8.43;;
60432;SDS011;46286;48.098;11.590;2023-04-06T00:02:59;19.10;;;8.55;;
60432;SDS011;46286;48.098;11.590;2023-04-06T00:05:25;16.23;;;7.35;;
60432;SDS011;46286;48.098;11.590;2023-04-06T00:07:52;21.58;;;7.40;;
60432;SDS011;46286;48.098;11.590;2023-04-06T00:10:19;18.73;;;8.25;;
60432;SDS011;46286;48.098;11.590;2023-04-06T00:12:45;18.25;;;7.50;;
60432;SDS011;46286;48.098;11.590;2023-04-06T00:15:10;16.63;;;7.55;;
60432;SDS011;46286;48.098;11.590;2023-04-06T00:17:36;19.70;;;8.18;;
60432;SDS011;46286;48.098;11.590;2023-04-06T00:20:01;18.67;;;7.57;;
60432;SDS011;46286;48.098;11.590;2023-04-06T00:22:27;18.63;;;7.10;;
60432;SDS011;46286;48.098;11.590;2023-04-06T00:24:53;17.10;;;7.78;;
60432;SDS011;46286;48.098;11.590;2023-04-06T00:27:18;15.13;;;7.03;;
60432;SDS011;46286;48.098;11.590;2023-04-06T00:29:44;19.60;;;7.65;;
60432;SDS011;46286;48.098;11.590;2023-04-06T00:32:10;16.95;;;7.43;;
60432;SDS011;46286;48.098;11.590;2023-04-06T00:34:35;16.13;;;7.82;;
60432;SDS011;46286;48.098;11.590;2023-04-06T00:37:01;17.60;;;7.22;;
60432;SDS011;46286;48.098;11.590;2023-04-06T00:39:26;15.88;;;6.53;;
60432;SDS011;46286;48.098;11.590;2023-04-06T00:41:52;17.05;;;7.68;;
60432;SDS011;46286;48.098;11.590;2023-04-06T00:44:19;18.10;;;7.65;;
60432;SDS011;46286;48.098;11.590;2023-04-06T00:46:45;17.77;;;7.72;;
60432;SDS011;46286;48.098;11.590;2023-04-06T00:49:11;16.05;;;7.43;;
60432;SDS011;46286;48.098;11.590;2023-04-06T00:51:36;17.98;;;8.10;;
60432;SDS011;46286;48.098;11.590;2023-04-06T00:54:02;15.52;;;7.00;;
60432;SDS011;46286;48.098;11.590;2023-04-06T00:56:28;22.90;;;7.25;;
60432;SDS011;46286;48.098;11.590;2023-04-06T00:58:53;20.70;;;7.70;;
60432;SDS011;46286;48.098;11.590;2023-04-06T01:01:19;17.83;;;7.07;;
60432;SDS011;46286;48.098;11.590;2023-04-06T01:03:45;13.98;;;6.50;;
60432;SDS011;46286;48.098;11.590;2023-04-06T01:06:14;14.77;;;7.35;;
60432;SDS011;46286;48.098;11.590;2023-04-06T01:08:39;16.02;;;7.38;;
60432;SDS011;46286;48.098;11.590;2023-04-06T01:11:05;18.55;;;7.63;;
60432;SDS011;46286;48.098;11.590;2023-04-06T01:13:30;22.90;;;7.72;;
60432;SDS011;46286;48.098;11.590;2023-04-06T01:15:56;13.60;;;7.07;;
60432;SDS011;46286;48.098;11.590;2023-04-06T01:18:28;16.52;;;7.15;;
60432;SDS011;46286;48.098;11.590;2023-04-06T01:20:55;16.27;;;7.10;;
60432;SDS011;46286;48.098;11.590;2023-04-06T01:23:20;17.17;;;6.97;;
60432;SDS011;46286;48.098;11.590;2023-04-06T01:25:46;16.88;;;6.28;;
60432;SDS011;46286;48.098;11.590;2023-04-06T01:28:12;16.85;;;7.32;;
60432;SDS011;46286;48.098;11.590;2023-04-06T01:30:37;17.30;;;7.35;;
60432;SDS011;46286;48.098;11.590;2023-04-06T01:33:03;13.57;;;6.85;;
60432;SDS011;46286;48.098;11.590;2023-04-06T01:35:29;16.88;;;6.80;;
60432;SDS011;46286;48.098;11.590;2023-04-06T01:37:55;18.25;;;7.05;;
60432;SDS011;46286;48.098;11.590;2023-04-06T01:40:21;13.95;;;6.60;;
60432;SDS011;46286;48.098;11.590;2023-04-06T01:42:46;16.67;;;7.45;;
60432;SDS011;46286;48.098;11.590;2023-04-06T01:45:12;17.35;;;6.95;;
60432;SDS011;46286;48.098;11.590;2023-04-06T01:47:37;17.60;;;6.82;;
60432;SDS011;46286;48.098;11.590;2023-04-06T01:50:03;13.02;;;6.18;;
60432;SDS011;46286;48.098;11.590;2023-04-06T01:52:31;23.08;;;7.15;;
60432;SDS011;46286;48.098;11.590;2023-04-06T01:54:58;15.75;;;6.20;;
60432;SDS011;46286;48.098;11.590;2023-04-06T01:57:23;13.15;;;6.38;;
60432;SDS011;46286;48.098;11.590;2023-04-06T01:59:51;13.27;;;6.72;;
60432;SDS011;46286;48.098;11.590;2023-04-06T02:02:16;15.05;;;6.70;;
60432;SDS011;46286;48.098;11.590;2023-04-06T02:04:43;16.95;;;7.07;;
60432;SDS011;46286;48.098;11.590;2023-04-06T02:07:08;13.32;;;6.75;;
60432;SDS011;46286;48.098;11.590;2023-04-06T02:09:34;13.20;;;6.63;;
60432;SDS011;46286;48.098;11.590;2023-04-06T02:11:59;15.40;;;6.70;;
60432;SDS011;46286;48.098;11.590;2023-04-06T02:14:26;16.63;;;6.90;;
60432;SDS011;46286;48.098;11.590;2023-04-06T02:16:52;12.88;;;6.57;;
60432;SDS011;46286;48.098;11.590;2023-04-06T02:19:18;11.85;;;6.25;;
60432;SDS011;46286;48.098;11.590;2023-04-06T02:21:44;14.50;;;6.25;;
60432;SDS011;46286;48.098;11.590;2023-04-06T02:24:09;14.13;;;6.57;;
60432;SDS011;46286;48.098;11.590;2023-04-06T02:26:35;16.08;;;7.00;;
60432;SDS011;46286;48.098;11.590;2023-04-06T02:29:01;19.23;;;7.15;;
60432;SDS011;46286;48.098;11.590;2023-04-06T02:31:27;15.05;;;6.28;;
60432;SDS011;46286;48.098;11.590;2023-04-06T02:33:53;13.50;;;6.65;;
60432;SDS011;46286;48.098;11.590;2023-04-06T02:36:18;13.48;;;6.25;;
60432;SDS011;46286;48.098;11.590;2023-04-06T02:38:44;13.00;;;6.40;;
60432;SDS011;46286;48.098;11.590;2023-04-06T02:41:09;14.82;;;6.85;;
60432;SDS011;46286;48.098;11.590;2023-04-06T02:43:35;15.77;;;6.35;;
60432;SDS011;46286;48.098;11.590;2023-04-06T02:46:00;17.25;;;7.18;;
60432;SDS011;46286;48.098;11.590;2023-04-06T02:48:26;12.30;;;5.95;;
60432;SDS011;46286;48.098;11.590;2023-04-06T02:50:51;17.40;;;6.50;;
60432;SDS011;46286;48.098;11.590;2023-04-06T02:53:17;18.05;;;6.57;;
60432;SDS011;46286;48.098;11.590;2023-04-06T02:55:43;16.80;;;6.72;;
60432;SDS011;46286;48.098;11.590;2023-04-06T02:58:08;18.83;;;6.65;;
60432;SDS011;46286;48.098;11.590;2023-04-06T03:00:34;13.43;;;6.63;;
60432;SDS011;46286;48.098;11.590;2023-04-06T03:03:00;19.67;;;6.75;;
60432;SDS011;46286;48.098;11.590;2023-04-06T03:05:25;14.70;;;7.00;;
60432;SDS011;46286;48.098;11.590;2023-04-06T03:07:51;15.48;;;7.03;;
60432;SDS011;46286;48.098;11.590;2023-04-06T03:10:16;15.45;;;7.00;;
60432;SDS011;46286;48.098;11.590;2023-04-06T03:12:42;14.45;;;6.85;;
60432;SDS011;46286;48.098;11.590;2023-04-06T03:15:08;11.05;;;6.07;;
60432;SDS011;46286;48.098;11.590;2023-04-06T03:17:34;16.10;;;7.90;;
60432;SDS011;46286;48.098;11.590;2023-04-06T03:19:59;16.13;;;6.88;;
60432;SDS011;46286;48.098;11.590;2023-04-06T03:22:25;15.63;;;7.70;;
60432;SDS011;46286;48.098;11.590;2023-04-06T03:24:51;13.57;;;7.30;;
60432;SDS011;46286;48.098;11.590;2023-04-06T03:27:16;15.68;;;7.22;;
60432;SDS011;46286;48.098;11.590;2023-04-06T03:29:42;16.40;;;6.90;;
60432;SDS011;46286;48.098;11.590;2023-04-06T03:32:08;16.10;;;7.10;;
60432;SDS011;46286;48.098;11.590;2023-04-06T03:34:34;12.65;;;6.20;;
60432;SDS011;46286;48.098;11.590;2023-04-06T03:37:00;19.13;;;7.32;;
60432;SDS011;46286;48.098;11.590;2023-04-06T03:39:25;15.13;;;6.85;;
60432;SDS011;46286;48.098;11.590;2023-04-06T03:41:51;17.13;;;7.18;;
60432;SDS011;46286;48.098;11.590;2023-04-06T03:44:17;14.95;;;7.10;;
60432;SDS011;46286;48.098;11.590;2023-04-06T03:46:43;16.30;;;7.05;;
60432;SDS011;46286;48.098;11.590;2023-04-06T03:49:08;16.92;;;7.25;;
60432;SDS011;46286;48.098;11.590;2023-04-06T03:51:34;17.30;;;8.32;;
60432;SDS011;46286;48.098;11.590;2023-04-06T03:53:59;18.38;;;8.95;;
60432;SDS011;46286;48.098;11.590;2023-04-06T03:56:25;18.38;;;7.53;;
60432;SDS011;46286;48.098;11.590;2023-04-06T03:58:50;20.55;;;8.25;;
60432;SDS011;46286;48.098;11.590;2023-04-06T04:01:16;22.05;;;7.70;;
60432;SDS011;46286;48.098;11.590;2023-04-06T04:03:43;14.38;;;6.95;;
60432;SDS011;46286;48.098;11.590;2023-04-06T04:06:09;19.85;;;7.20;;
60432;SDS011;46286;48.098;11.590;2023-04-06T04:08:34;19.70;;;7.28;;
60432;SDS011;46286;48.098;11.590;2023-04-06T04:11:01;19.25;;;7.00;;
60432;SDS011;46286;48.098;11.590;2023-04-06T04:13:26;15.45;;;6.85;;
60432;SDS011;46286;48.098;11.590;2023-04-06T04:15:52;14.80;;;7.07;;
60432;SDS011;46286;48.098;11.590;2023-04-06T04:18:18;13.07;;;7.38;;
60432;SDS011;46286;48.098;11.590;2023-04-06T04:20:44;15.45;;;7.53;;
60432;SDS011;46286;48.098;11.590;2023-04-06T04:23:10;15.45;;;7.13;;
60432;SDS011;46286;48.098;11.590;2023-04-06T04:25:35;14.45;;;7.25;;
60432;SDS011;46286;48.098;11.590;2023-04-06T04:28:01;18.75;;;8.13;;
60432;SDS011;46286;48.098;11.590;2023-04-06T04:30:27;19.00;;;7.32;;
60432;SDS011;46286;48.098;11.590;2023-04-06T04:32:53;20.38;;;7.53;;
60432;SDS011;46286;48.098;11.590;2023-04-06T04:35:18;14.55;;;7.18;;
60432;SDS011;46286;48.098;11.590;2023-04-06T04:37:44;19.80;;;8.40;;
60432;SDS011;46286;48.098;11.590;2023-04-06T04:40:09;14.82;;;7.68;;
60432;SDS011;46286;48.098;11.590;2023-04-06T04:42:35;16.23;;;7.38;;
60432;SDS011;46286;48.098;11.590;2023-04-06T04:45:01;22.90;;;7.80;;
60432;SDS011;46286;48.098;11.590;2023-04-06T04:47:26;21.67;;;9.40;;
60432;SDS011;46286;48.098;11.590;2023-04-06T04:49:52;23.08;;;9.90;;
60432;SDS011;46286;48.098;11.590;2023-04-06T04:52:17;27.60;;;11.05;;
60432;SDS011;46286;48.098;11.590;2023-04-06T04:54:43;41.72;;;13.52;;
60432;SDS011;46286;48.098;11.590;2023-04-06T04:57:09;40.60;;;14.13;;
60432;SDS011;46286;48.098;11.590;2023-04-06T04:59:34;30.55;;;11.25;;
60432;SDS011;46286;48.098;11.590;2023-04-06T05:02:00;22.60;;;9.18;;
60432;SDS011;46286;48.098;11.590;2023-04-06T05:04:26;29.83;;;9.32;;
60432;SDS011;46286;48.098;11.590;2023-04-06T05:07:01;20.55;;;9.25;;
60432;SDS011;46286;48.098;11.590;2023-04-06T05:09:32;22.35;;;8.48;;
60432;SDS011;46286;48.098;11.590;2023-04-06T05:11:58;18.80;;;8.77;;
60432;SDS011;46286;48.098;11.590;2023-04-06T05:14:24;22.17;;;7.82;;
60432;SDS011;46286;48.098;11.590;2023-04-06T05:16:50;16.35;;;7.82;;
60432;SDS011;46286;48.098;11.590;2023-04-06T05:19:16;21.90;;;9.57;;
60432;SDS011;46286;48.098;11.590;2023-04-06T05:21:41;21.08;;;9.00;;
60432;SDS011;46286;48.098;11.590;2023-04-06T05:24:07;24.13;;;9.80;;
60432;SDS011;46286;48.098;11.590;2023-04-06T05:26:33;22.83;;;9.38;;
60432;SDS011;46286;48.098;11.590;2023-04-06T05:28:59;19.48;;;8.52;;
60432;SDS011;46286;48.098;11.590;2023-04-06T05:31:25;19.27;;;8.98;;
60432;SDS011;46286;48.098;11.590;2023-04-06T05:33:50;18.25;;;9.23;;
60432;SDS011;46286;48.098;11.590;2023-04-06T05:36:16;23.10;;;9.68;;
60432;SDS011;46286;48.098;11.590;2023-04-06T05:38:42;21.45;;;9.52;;
60432;SDS011;46286;48.098;11.590;2023-04-06T05:41:07;24.95;;;9.38;;
60432;SDS011;46286;48.098;11.590;2023-04-06T05:43:33;20.20;;;8.90;;
60432;SDS011;46286;48.098;11.590;2023-04-06T05:45:58;29.52;;;8.85;;
60432;SDS011;46286;48.098;11.590;2023-04-06T05:48:24;21.23;;;9.00;;
60432;SDS011;46286;48.098;11.590;2023-04-06T05:50:50;25.00;;;9.45;;
60432;SDS011;46286;48.098;11.590;2023-04-06T05:53:16;25.63;;;9.68;;
60432;SDS011;46286;48.098;11.590;2023-04-06T05:55:42;21.60;;;9.98;;
60432;SDS011;46286;48.098;11.590;2023-04-06T05:58:09;32.20;;;10.55;;
60432;SDS011;46286;48.098;11.590;2023-04-06T06:00:35;24.42;;;9.38;;
60432;SDS011;46286;48.098;11.590;2023-04-06T06:03:01;26.35;;;11.25;;
60432;SDS011;46286;48.098;11.590;2023-04-06T06:05:29;25.65;;;10.52;;
60432;SDS011;46286;48.098;11.590;2023-04-06T06:07:55;30.02;;;10.98;;
60432;SDS011;46286;48.098;11.590;2023-04-06T06:10:20;24.65;;;10.43;;
60432;SDS011;46286;48.098;11.590;2023-04-06T06:12:46;22.35;;;9.77;;
60432;SDS011;46286;48.098;11.590;2023-04-06T06:15:11;26.35;;;9.93;;
60432;SDS011;46286;48.098;11.590;2023-04-06T06:17:37;23.08;;;10.43;;
60432;SDS011;46286;48.098;11.590;2023-04-06T06:20:04;33.50;;;10.43;;
60432;SDS011;46286;48.098;11.590;2023-04-06T06:22:31;23.33;;;11.45;;
60432;SDS011;46286;48.098;11.590;2023-04-06T06:24:57;23.75;;;10.38;;
60432;SDS011;46286;48.098;11.590;2023-04-06T06:27:22;22.15;;;10.45;;
60432;SDS011;46286;48.098;11.590;2023-04-06T06:29:48;21.13;;;9.95;;
60432;SDS011;46286;48.098;11.590;2023-04-06T06:32:14;26.63;;;10.10;;
60432;SDS011;46286;48.098;11.590;2023-04-06T06:34:39;23.50;;;10.27;;
60432;SDS011;46286;48.098;11.590;2023-04-06T06:37:05;23.60;;;10.57;;
60432;SDS011;46286;48.098;11.590;2023-04-06T06:39:31;27.02;;;10.70;;
60432;SDS011;46286;48.098;11.590;2023-04-06T06:41:57;18.17;;;9.77;;
60432;SDS011;46286;48.098;11.590;2023-04-06T06:44:25;24.88;;;9.77;;
60432;SDS011;46286;48.098;11.590;2023-04-06T06:46:51;29.20;;;9.35;;
60432;SDS011;46286;48.098;11.590;2023-04-06T06:49:17;26.83;;;9.43;;
60432;SDS011;46286;48.098;11.590;2023-04-06T06:51:43;24.88;;;10.32;;
60432;SDS011;46286;48.098;11.590;2023-04-06T06:54:09;22.33;;;10.02;;
60432;SDS011;46286;48.098;11.590;2023-04-06T06:56:35;23.45;;;9.60;;
60432;SDS011;46286;48.098;11.590;2023-04-06T06:59:04;23.23;;;10.13;;
60432;SDS011;46286;48.098;11.590;2023-04-06T07:01:34;22.17;;;11.00;;
60432;SDS011;46286;48.098;11.590;2023-04-06T07:04:00;26.75;;;9.85;;
60432;SDS011;46286;48.098;11.590;2023-04-06T07:06:25;23.65;;;10.32;;
60432;SDS011;46286;48.098;11.590;2023-04-06T07:08:51;23.75;;;9.68;;
60432;SDS011;46286;48.098;11.590;2023-04-06T07:11:17;31.33;;;10.00;;
60432;SDS011;46286;48.098;11.590;2023-04-06T07:13:42;23.88;;;9.65;;
60432;SDS011;46286;48.098;11.590;2023-04-06T07:16:08;19.17;;;10.27;;
60432;SDS011;46286;48.098;11.590;2023-04-06T07:18:33;25.60;;;10.40;;
60432;SDS011;46286;48.098;11.590;2023-04-06T07:20:59;19.98;;;10.07;;
60432;SDS011;46286;48.098;11.590;2023-04-06T07:23:25;24.65;;;10.70;;
60432;SDS011;46286;48.098;11.590;2023-04-06T07:25:50;22.13;;;10.48;;
60432;SDS011;46286;48.098;11.590;2023-04-06T07:28:18;22.52;;;9.63;;
60432;SDS011;46286;48.098;11.590;2023-04-06T07:30:44;23.65;;;9.52;;
60432;SDS011;46286;48.098;11.590;2023-04-06T07:33:10;23.00;;;10.07;;
60432;SDS011;46286;48.098;11.590;2023-04-06T07:35:35;26.20;;;10.38;;
60432;SDS011;46286;48.098;11.590;2023-04-06T07:38:02;25.10;;;10.40;;
60432;SDS011;46286;48.098;11.590;2023-04-06T07:40:27;22.60;;;10.48;;
60432;SDS011;46286;48.098;11.590;2023-04-06T07:42:53;23.23;;;9.75;;
60432;SDS011;46286;48.098;11.590;2023-04-06T07:45:19;19.67;;;9.55;;
60432;SDS011;46286;48.098;11.590;2023-04-06T07:47:44;24.70;;;10.43;;
60432;SDS011;46286;48.098;11.590;2023-04-06T07:50:11;20.88;;;10.05;;
60432;SDS011;46286;48.098;11.590;2023-04-06T07:52:36;19.33;;;9.65;;
60432;SDS011;46286;48.098;11.590;2023-04-06T07:55:02;24.33;;;10.68;;
60432;SDS011;46286;48.098;11.590;2023-04-06T07:57:27;26.05;;;9.77;;
60432;SDS011;46286;48.098;11.590;2023-04-06T07:59:53;26.90;;;10.93;;
60432;SDS011;46286;48.098;11.590;2023-04-06T08:02:19;22.20;;;10.52;;
60432;SDS011;46286;48.098;11.590;2023-04-06T08:04:44;32.33;;;10.88;;
60432;SDS011;46286;48.098;11.590;2023-04-06T08:07:10;21.80;;;9.68;;
60432;SDS011;46286;48.098;11.590;2023-04-06T08:09:36;25.35;;;10.68;;
60432;SDS011;46286;48.098;11.590;2023-04-06T08:12:01;20.90;;;10.30;;
60432;SDS011;46286;48.098;11.590;2023-04-06T08:14:27;29.98;;;10.57;;
60432;SDS011;46286;48.098;11.590;2023-04-06T08:16:53;20.60;;;10.07;;
60432;SDS011;46286;48.098;11.590;2023-04-06T08:19:19;21.88;;;10.05;;
60432;SDS011;46286;48.098;11.590;2023-04-06T08:21:44;19.73;;;9.88;;
60432;SDS011;46286;48.098;11.590;2023-04-06T08:24:11;20.65;;;10.50;;
60432;SDS011;46286;48.098;11.590;2023-04-06T08:26:37;25.20;;;10.90;;
60432;SDS011;46286;48.098;11.590;2023-04-06T08:29:03;24.92;;;10.63;;
60432;SDS011;46286;48.098;11.590;2023-04-06T08:31:29;26.88;;;10.95;;
60432;SDS011;46286;48.098;11.590;2023-04-06T08:33:55;22.88;;;9.82;;
60432;SDS011;46286;48.098;11.590;2023-04-06T08:36:21;22.45;;;10.15;;
60432;SDS011;46286;48.098;11.590;2023-04-06T08:38:48;22.27;;;10.57;;
60432;SDS011;46286;48.098;11.590;2023-04-06T08:41:14;23.92;;;10.02;;
60432;SDS011;46286;48.098;11.590;2023-04-06T08:43:48;23.13;;;10.07;;
60432;SDS011;46286;48.098;11.590;2023-04-06T08:46:24;23.23;;;10.02;;
60432;SDS011;46286;48.098;11.590;2023-04-06T08:48:55;22.02;;;9.50;;
60432;SDS011;46286;48.098;11.590;2023-04-06T08:51:22;24.77;;;10.32;;
60432;SDS011;46286;48.098;11.590;2023-04-06T08:53:52;22.15;;;10.30;;
60432;SDS011;46286;48.098;11.590;2023-04-06T08:56:20;18.85;;;9.35;;
60432;SDS011;46286;48.098;11.590;2023-04-06T08:58:47;22.40;;;10.23;;
60432;SDS011;46286;48.098;11.590;2023-04-06T09:01:14;22.23;;;10.02;;
60432;SDS011;46286;48.098;11.590;2023-04-06T09:03:42;19.92;;;9.52;;
60432;SDS011;46286;48.098;11.590;2023-04-06T09:06:09;19.58;;;9.57;;
60432;SDS011;46286;48.098;11.590;2023-04-06T09:08:38;20.27;;;9.73;;
60432;SDS011;46286;48.098;11.590;2023-04-06T09:11:05;29.63;;;11.30;;
60432;SDS011;46286;48.098;11.590;2023-04-06T09:13:31;20.42;;;10.27;;
60432;SDS011;46286;48.098;11.590;2023-04-06T09:16:03;20.23;;;9.63;;
60432;SDS011;46286;48.098;11.590;2023-04-06T09:20:58;23.52;;;10.45;;
60432;SDS011;46286;48.098;11.590;2023-04-06T09:23:28;24.63;;;10.43;;
60432;SDS011;46286;48.098;11.590;2023-04-06T09:28:52;20.50;;;10.45;;
60432;SDS011;46286;48.098;11.590;2023-04-06T09:31:22;21.30;;;10.75;;
60432;SDS011;46286;48.098;11.590;2023-04-06T09:33:50;21.58;;;10.98;;
60432;SDS011;46286;48.098;11.590;2023-04-06T09:36:17;24.77;;;11.70;;
60432;SDS011;46286;48.098;11.590;2023-04-06T09:38:56;23.13;;;11.27;;
60432;SDS011;46286;48.098;11.590;2023-04-06T09:41:24;23.27;;;10.57;;
60432;SDS011;46286;48.098;11.590;2023-04-06T09:43:52;21.45;;;10.52;;
60432;SDS011;46286;48.098;11.590;2023-04-06T09:46:26;19.95;;;9.82;;
60432;SDS011;46286;48.098;11.590;2023-04-06T09:48:56;20.45;;;9.98;;
60432;SDS011;46286;48.098;11.590;2023-04-06T09:51:22;22.70;;;10.45;;
60432;SDS011;46286;48.098;11.590;2023-04-06T09:53:52;23.65;;;11.48;;
60432;SDS011;46286;48.098;11.590;2023-04-06T09:56:20;23.83;;;10.70;;
60432;SDS011;46286;48.098;11.590;2023-04-06T09:58:52;25.23;;;10.82;;
60432;SDS011;46286;48.098;11.590;2023-04-06T10:01:21;26.27;;;10.65;;
60432;SDS011;46286;48.098;11.590;2023-04-06T10:03:56;22.23;;;10.65;;
60432;SDS011;46286;48.098;11.590;2023-04-06T10:06:27;19.95;;;9.68;;
60432;SDS011;46286;48.098;11.590;2023-04-06T10:08:58;22.85;;;10.18;;
60432;SDS011;46286;48.098;11.590;2023-04-06T10:11:26;23.90;;;11.52;;
60432;SDS011;46286;48.098;11.590;2023-04-06T10:13:52;25.88;;;10.88;;
60432;SDS011;46286;48.098;11.590;2023-04-06T10:16:17;22.30;;;10.70;;
60432;SDS011;46286;48.098;11.590;2023-04-06T10:18:44;21.98;;;9.77;;
60432;SDS011;46286;48.098;11.590;2023-04-06T10:21:17;20.23;;;10.48;;
60432;SDS011;46286;48.098;11.590;2023-04-06T10:23:51;22.50;;;10.77;;
60432;SDS011;46286;48.098;11.590;2023-04-06T10:26:21;23.70;;;11.07;;
60432;SDS011;46286;48.098;11.590;2023-04-06T10:28:47;22.42;;;10.70;;
60432;SDS011;46286;48.098;11.590;2023-04-06T10:31:14;21.33;;;10.52;;
60432;SDS011;46286;48.098;11.590;2023-04-06T10:33:40;21.55;;;10.70;;
60432;SDS011;46286;48.098;11.590;2023-04-06T10:36:25;19.67;;;10.40;;
60432;SDS011;46286;48.098;11.590;2023-04-06T10:38:56;21.20;;;10.60;;
60432;SDS011;46286;48.098;11.590;2023-04-06T10:41:23;20.10;;;10.35;;
60432;SDS011;46286;48.098;11.590;2023-04-06T10:43:55;21.42;;;10.40;;
60432;SDS011;46286;48.098;11.590;2023-04-06T10:46:29;21.48;;;10.40;;
60432;SDS011;46286;48.098;11.590;2023-04-06T10:48:56;18.88;;;10.45;;
60432;SDS011;46286;48.098;11.590;2023-04-06T10:51:26;18.30;;;10.73;;
60432;SDS011;46286;48.098;11.590;2023-04-06T10:53:54;21.67;;;10.45;;
60432;SDS011;46286;48.098;11.590;2023-04-06T10:56:23;22.15;;;9.95;;
60432;SDS011;46286;48.098;11.590;2023-04-06T10:58:53;23.60;;;10.93;;
60432;SDS011;46286;48.098;11.590;2023-04-06T11:01:23;26.77;;;11.52;;
60432;SDS011;46286;48.098;11.590;2023-04-06T11:03:52;23.38;;;11.57;;
60432;SDS011;46286;48.098;11.590;2023-04-06T11:06:20;33.53;;;12.85;;
60432;SDS011;46286;48.098;11.590;2023-04-06T11:08:46;20.35;;;11.60;;
60432;SDS011;46286;48.098;11.590;2023-04-06T11:11:13;19.17;;;10.77;;
60432;SDS011;46286;48.098;11.590;2023-04-06T11:13:50;21.75;;;11.27;;
60432;SDS011;46286;48.098;11.590;2023-04-06T11:16:24;22.05;;;10.55;;
60432;SDS011;46286;48.098;11.590;2023-04-06T11:18:58;22.52;;;11.60;;
60432;SDS011;46286;48.098;11.590;2023-04-06T11:21:50;20.13;;;10.73;;
60432;SDS011;46286;48.098;11.590;2023-04-06T11:24:17;21.08;;;11.30;;
60432;SDS011;46286;48.098;11.590;2023-04-06T11:26:54;21.77;;;11.32;;
60432;SDS011;46286;48.098;11.590;2023-04-06T11:29:22;21.77;;;11.55;;
60432;SDS011;46286;48.098;11.590;2023-04-06T11:31:48;24.50;;;11.15;;
60432;SDS011;46286;48.098;11.590;2023-04-06T11:34:16;18.67;;;10.27;;
60432;SDS011;46286;48.098;11.590;2023-04-06T11:36:43;23.55;;;11.93;;
60432;SDS011;46286;48.098;11.590;2023-04-06T11:39:11;25.10;;;11.32;;
60432;SDS011;46286;48.098;11.590;2023-04-06T11:41:38;22.17;;;11.50;;
60432;SDS011;46286;48.098;11.590;2023-04-06T11:44:04;20.75;;;10.98;;
60432;SDS011;46286;48.098;11.590;2023-04-06T11:46:30;20.50;;;9.98;;
60432;SDS011;46286;48.098;11.590;2023-04-06T11:48:59;24.48;;;11.23;;
60432;SDS011;46286;48.098;11.590;2023-04-06T11:51:26;18.55;;;10.65;;
60432;SDS011;46286;48.098;11.590;2023-04-06T11:53:52;17.92;;;10.23;;
60432;SDS011;46286;48.098;11.590;2023-04-06T11:56:25;18.17;;;10.40;;
60432;SDS011;46286;48.098;11.590;2023-04-06T11:58:54;18.27;;;9.73;;
60432;SDS011;46286;48.098;11.590;2023-04-06T12:01:21;16.88;;;10.23;;
60432;SDS011;46286;48.098;11.590;2023-04-06T12:03:46;22.35;;;11.25;;
60432;SDS011;46286;48.098;11.590;2023-04-06T12:06:12;20.05;;;10.70;;
60432;SDS011;46286;48.098;11.590;2023-04-06T12:08:38;23.50;;;11.32;;
60432;SDS011;46286;48.098;11.590;2023-04-06T12:11:03;21.20;;;10.55;;
60432;SDS011;46286;48.098;11.590;2023-04-06T12:13:29;18.98;;;10.48;;
60432;SDS011;46286;48.098;11.590;2023-04-06T12:15:54;18.05;;;9.70;;
60432;SDS011;46286;48.098;11.590;2023-04-06T12:18:23;17.33;;;10.35;;
60432;SDS011;46286;48.098;11.590;2023-04-06T12:20:49;16.48;;;9.65;;
60432;SDS011;46286;48.098;11.590;2023-04-06T12:23:14;17.73;;;10.70;;
60432;SDS011;46286;48.098;11.590;2023-04-06T12:25:42;18.05;;;10.30;;
60432;SDS011;46286;48.098;11.590;2023-04-06T12:28:10;17.42;;;10.00;;
60432;SDS011;46286;48.098;11.590;2023-04-06T12:30:38;17.75;;;10.55;;
60432;SDS011;46286;48.098;11.590;2023-04-06T12:33:06;17.42;;;9.98;;
60432;SDS011;46286;48.098;11.590;2023-04-06T12:35:34;19.50;;;10.20;;
60432;SDS011;46286;48.098;11.590;2023-04-06T12:38:01;16.30;;;9.40;;
60432;SDS011;46286;48.098;11.590;2023-04-06T12:40:27;16.10;;;9.13;;
60432;SDS011;46286;48.098;11.590;2023-04-06T12:42:53;16.05;;;9.75;;
60432;SDS011;46286;48.098;11.590;2023-04-06T12:45:18;15.60;;;10.13;;
60432;SDS011;46286;48.098;11.590;2023-04-06T12:47:44;16.27;;;9.20;;
60432;SDS011;46286;48.098;11.590;2023-04-06T12:50:09;16.23;;;9.93;;
60432;SDS011;46286;48.098;11.590;2023-04-06T12:52:35;16.58;;;9.70;;
60432;SDS011;46286;48.098;11.590;2023-04-06T12:55:02;16.63;;;9.05;;
60432;SDS011;46286;48.098;11.590;2023-04-06T12:57:28;14.93;;;8.95;;
60432;SDS011;46286;48.098;11.590;2023-04-06T12:59:54;14.18;;;9.32;;
60432;SDS011;46286;48.098;11.590;2023-04-06T13:02:19;16.48;;;9.95;;
60432;SDS011;46286;48.098;11.590;2023-04-06T13:04:46;16.77;;;9.60;;
60432;SDS011;46286;48.098;11.590;2023-04-06T13:07:14;18.27;;;9.98;;
60432;SDS011;46286;48.098;11.590;2023-04-06T13:09:39;15.98;;;9.13;;
60432;SDS011;46286;48.098;11.590;2023-04-06T13:12:05;16.73;;;9.35;;
60432;SDS011;46286;48.098;11.590;2023-04-06T13:14:31;15.40;;;8.70;;
60432;SDS011;46286;48.098;11.590;2023-04-06T13:16:57;17.10;;;9.05;;
60432;SDS011;46286;48.098;11.590;2023-04-06T13:19:22;18.85;;;9.20;;
60432;SDS011;46286;48.098;11.590;2023-04-06T13:21:48;15.10;;;8.68;;
60432;SDS011;46286;48.098;11.590;2023-04-06T13:24:14;19.63;;;9.15;;
60432;SDS011;46286;48.098;11.590;2023-04-06T13:26:40;15.63;;;8.02;;
60432;SDS011;46286;48.098;11.590;2023-04-06T13:29:05;17.05;;;9.23;;
60432;SDS011;46286;48.098;11.590;2023-04-06T13:31:31;15.85;;;9.07;;
60432;SDS011;46286;48.098;11.590;2023-04-06T13:33:57;15.18;;;8.93;;
60432;SDS011;46286;48.098;11.590;2023-04-06T13:36:23;16.05;;;9.15;;
60432;SDS011;46286;48.098;11.590;2023-04-06T13:38:51;15.95;;;9.23;;
60432;SDS011;46286;48.098;11.590;2023-04-06T13:41:18;20.92;;;9.13;;
60432;SDS011;46286;48.098;11.590;2023-04-06T13:43:46;17.05;;;9.38;;
60432;SDS011;46286;48.098;11.590;2023-04-06T13:46:12;16.13;;;9.15;;
60432;SDS011;46286;48.098;11.590;2023-04-06T13:48:37;15.13;;;8.95;;
60432;SDS011;46286;48.098;11.590;2023-04-06T13:51:12;17.05;;;9.65;;
60432;SDS011;46286;48.098;11.590;2023-04-06T13:53:40;14.63;;;8.88;;
60432;SDS011;46286;48.098;11.590;2023-04-06T13:56:08;18.88;;;9.32;;
60432;SDS011;46286;48.098;11.590;2023-04-06T13:58:36;15.02;;;8.68;;
60432;SDS011;46286;48.098;11.590;2023-04-06T14:01:03;17.08;;;8.50;;
60432;SDS011;46286;48.098;11.590;2023-04-06T14:03:29;15.23;;;8.27;;
60432;SDS011;46286;48.098;11.590;2023-04-06T14:05:55;14.07;;;8.27;;
60432;SDS011;46286;48.098;11.590;2023-04-06T14:08:21;17.60;;;9.50;;
60432;SDS011;46286;48.098;11.590;2023-04-06T14:10:47;14.00;;;9.00;;
60432;SDS011;46286;48.098;11.590;2023-04-06T14:13:12;15.13;;;9.05;;
60432;SDS011;46286;48.098;11.590;2023-04-06T14:15:38;14.30;;;8.40;;
60432;SDS011;46286;48.098;11.590;2023-04-06T14:18:04;15.60;;;8.23;;